createdAt,value
2019-03-31T00:00:40.503Z,15.43
2019-03-31T00:03:07.068Z,16.05
2019-03-31T00:05:36.987Z,15.53
2019-03-31T00:08:02.275Z,12.93
2019-03-31T00:10:28.917Z,14.45
2019-03-31T00:12:55.519Z,15.03
2019-03-31T00:15:22.083Z,18.40
2019-03-31T00:17:48.640Z,15.58
2019-03-31T00:20:15.146Z,19.05
2019-03-31T00:22:41.625Z,14.95
2019-03-31T00:25:08.282Z,12.28
2019-03-31T00:27:34.953Z,12.03
2019-03-31T00:30:01.611Z,12.58
2019-03-31T00:32:28.316Z,15.13
2019-03-31T00:34:54.893Z,13.75
2019-03-31T00:37:21.614Z,18.05
2019-03-31T00:39:48.357Z,14.60
2019-03-31T00:42:14.829Z,16.07
2019-03-31T00:44:41.409Z,11.18
2019-03-31T00:47:08.161Z,12.20
2019-03-31T00:49:34.658Z,11.28
2019-03-31T00:52:01.214Z,19.23
2019-03-31T00:54:28.020Z,11.50
2019-03-31T00:56:54.761Z,13.48
2019-03-31T00:59:21.308Z,15.63
2019-03-31T01:01:52.644Z,11.97
2019-03-31T01:04:21.311Z,14.75
2019-03-31T01:06:50.262Z,12.18
2019-03-31T01:09:22.354Z,13.30
2019-03-31T01:11:49.074Z,11.70
2019-03-31T01:14:15.714Z,13.43
2019-03-31T01:16:43.392Z,15.20
2019-03-31T01:19:10.243Z,11.73
2019-03-31T01:21:37.041Z,14.73
2019-03-31T01:24:03.758Z,12.73
2019-03-31T01:26:30.585Z,10.80
2019-03-31T01:28:57.544Z,13.28
2019-03-31T01:31:24.124Z,13.30
2019-03-31T01:33:50.578Z,16.37
2019-03-31T01:36:17.627Z,11.65
2019-03-31T01:38:44.210Z,11.50
2019-03-31T01:41:11.057Z,14.75
2019-03-31T01:43:37.920Z,12.05
2019-03-31T01:46:07.026Z,13.28
2019-03-31T01:48:33.582Z,15.48
2019-03-31T01:51:00.139Z,13.10
2019-03-31T01:53:26.741Z,12.95
2019-03-31T01:55:53.183Z,12.33
2019-03-31T01:58:19.799Z,11.30
2019-03-31T02:01:00.503Z,9.90
2019-03-31T02:03:27.081Z,12.58
2019-03-31T02:05:53.642Z,13.58
2019-03-31T02:08:20.408Z,12.18
2019-03-31T02:10:47.996Z,14.50
2019-03-31T02:13:14.543Z,15.30
2019-03-31T02:15:41.215Z,12.47
2019-03-31T02:18:07.871Z,11.88
2019-03-31T02:20:34.424Z,13.65
2019-03-31T02:23:00.888Z,13.15
2019-03-31T02:25:27.336Z,12.13
2019-03-31T02:27:53.846Z,13.00
2019-03-31T02:30:20.521Z,14.60
2019-03-31T02:32:47.159Z,13.48
2019-03-31T02:35:13.862Z,12.65
2019-03-31T02:37:42.389Z,14.95
2019-03-31T02:40:08.910Z,11.83
2019-03-31T02:42:35.488Z,11.88
2019-03-31T02:45:02.613Z,15.83
2019-03-31T02:47:29.321Z,17.48
2019-03-31T02:49:55.805Z,13.45
2019-03-31T02:52:22.391Z,12.95
2019-03-31T02:54:49.064Z,12.10
2019-03-31T02:57:15.510Z,13.55
2019-03-31T02:59:42.001Z,13.05
2019-03-31T03:02:09.664Z,14.20
2019-03-31T03:04:36.156Z,13.88
2019-03-31T03:07:02.827Z,11.63
2019-03-31T03:09:29.392Z,12.88
2019-03-31T03:11:56.095Z,11.78
2019-03-31T03:14:23.357Z,11.97
2019-03-31T03:16:50.005Z,12.00
2019-03-31T03:19:16.527Z,13.35
2019-03-31T03:21:43.189Z,15.48
2019-03-31T03:24:09.843Z,14.50
2019-03-31T03:26:38.366Z,12.78
2019-03-31T03:29:04.835Z,12.60
2019-03-31T03:31:31.417Z,16.20
2019-03-31T03:33:57.946Z,12.68
2019-03-31T03:36:24.730Z,12.13
2019-03-31T03:38:51.291Z,14.38
2019-03-31T03:41:18.127Z,12.33
2019-03-31T03:43:54.967Z,11.97
2019-03-31T03:46:13.067Z,14.75
2019-03-31T03:48:39.918Z,11.20
2019-03-31T03:51:06.572Z,12.43
2019-03-31T03:53:33.024Z,13.53
2019-03-31T03:55:59.567Z,12.88
2019-03-31T03:58:26.350Z,13.18
2019-03-31T04:00:53.015Z,13.68
2019-03-31T04:03:30.147Z,12.43
2019-03-31T04:05:47.944Z,11.12
2019-03-31T04:08:14.485Z,13.98
2019-03-31T04:10:45.071Z,13.43
2019-03-31T04:13:11.948Z,13.38
2019-03-31T04:15:38.503Z,14.53
2019-03-31T04:18:04.953Z,13.43
2019-03-31T04:20:31.627Z,12.63
2019-03-31T04:22:58.366Z,16.57
2019-03-31T04:25:24.838Z,12.78
2019-03-31T04:28:01.343Z,13.83
2019-03-31T04:30:27.894Z,10.98
2019-03-31T04:32:54.358Z,10.82
2019-03-31T04:35:20.824Z,12.20
2019-03-31T04:37:47.376Z,16.42
2019-03-31T04:40:13.967Z,10.38
2019-03-31T04:42:40.505Z,14.93
2019-03-31T04:45:07.055Z,13.00
2019-03-31T04:47:33.870Z,11.60
2019-03-31T04:50:00.399Z,14.55
2019-03-31T04:52:26.963Z,11.63
2019-03-31T04:54:53.667Z,13.80
2019-03-31T04:57:20.346Z,15.68
2019-03-31T04:59:46.890Z,15.80
2019-03-31T05:02:13.554Z,12.95
2019-03-31T05:04:40.330Z,11.63
2019-03-31T05:07:06.874Z,11.43
2019-03-31T05:09:33.533Z,12.53
2019-03-31T05:12:01.380Z,12.35
2019-03-31T05:14:27.844Z,14.25
2019-03-31T05:16:54.424Z,9.80
2019-03-31T05:19:20.996Z,13.60
2019-03-31T05:21:48.536Z,10.50
2019-03-31T05:24:15.185Z,15.58
2019-03-31T05:26:41.811Z,14.28
2019-03-31T05:29:08.400Z,9.50
2019-03-31T05:31:35.148Z,13.60
2019-03-31T05:34:01.729Z,12.95
2019-03-31T05:36:28.258Z,10.40
2019-03-31T05:38:54.803Z,14.35
2019-03-31T05:41:22.373Z,8.60
2019-03-31T05:43:49.076Z,12.55
2019-03-31T05:46:15.699Z,10.03
2019-03-31T05:48:42.262Z,22.87
2019-03-31T05:51:09.002Z,21.12
2019-03-31T05:53:37.338Z,10.48
2019-03-31T05:56:03.888Z,12.98
2019-03-31T05:58:30.669Z,12.63
2019-03-31T06:00:57.151Z,18.25
2019-03-31T06:03:23.679Z,15.58
2019-03-31T06:05:50.482Z,17.95
2019-03-31T06:08:17.072Z,12.98
2019-03-31T06:10:43.508Z,17.85
2019-03-31T06:13:10.279Z,13.50
2019-03-31T06:15:36.801Z,13.20
2019-03-31T06:18:04.249Z,14.13
2019-03-31T06:20:31.007Z,12.93
2019-03-31T06:22:57.613Z,10.65
2019-03-31T06:25:24.178Z,13.03
2019-03-31T06:27:50.670Z,16.50
2019-03-31T06:30:17.218Z,12.05
2019-03-31T06:32:43.875Z,12.80
2019-03-31T06:35:10.433Z,12.53
2019-03-31T06:37:37.023Z,12.40
2019-03-31T06:40:04.192Z,13.85
2019-03-31T06:42:30.854Z,12.95
2019-03-31T06:44:57.533Z,13.68
2019-03-31T06:47:25.103Z,11.93
2019-03-31T06:49:51.566Z,11.68
2019-03-31T06:52:19.712Z,12.37
2019-03-31T06:54:46.304Z,11.08
2019-03-31T06:57:12.816Z,9.18
2019-03-31T06:59:39.347Z,8.70
2019-03-31T07:02:06.037Z,13.43
2019-03-31T07:04:32.681Z,13.30
2019-03-31T07:06:59.405Z,8.18
2019-03-31T07:09:25.899Z,8.40
2019-03-31T07:11:52.304Z,9.65
2019-03-31T07:14:18.795Z,11.65
2019-03-31T07:16:45.349Z,10.00
2019-03-31T07:19:11.823Z,9.08
2019-03-31T07:21:39.607Z,11.18
2019-03-31T07:24:06.145Z,9.20
2019-03-31T07:26:32.728Z,12.10
2019-03-31T07:28:59.492Z,9.38
2019-03-31T07:31:26.260Z,7.37
2019-03-31T07:33:52.972Z,10.20
2019-03-31T07:36:19.670Z,9.48
2019-03-31T07:38:46.376Z,11.33
2019-03-31T07:41:13.609Z,11.90
2019-03-31T07:43:40.313Z,11.10
2019-03-31T07:46:06.990Z,8.48
2019-03-31T07:48:33.563Z,12.88
2019-03-31T07:51:00.154Z,9.80
2019-03-31T07:53:26.706Z,13.48
2019-03-31T07:55:53.243Z,13.93
2019-03-31T07:58:19.746Z,16.87
2019-03-31T08:00:46.380Z,16.32
2019-03-31T08:03:13.054Z,14.47
2019-03-31T08:05:39.910Z,18.23
2019-03-31T08:08:06.385Z,19.10
2019-03-31T08:10:33.035Z,15.30
2019-03-31T08:12:59.996Z,20.60
2019-03-31T08:15:26.717Z,17.50
2019-03-31T08:17:53.415Z,19.52
2019-03-31T08:20:20.545Z,19.87
2019-03-31T08:22:47.095Z,21.25
2019-03-31T08:25:14.103Z,20.43
2019-03-31T08:27:41.373Z,21.90
2019-03-31T08:30:10.666Z,20.40
2019-03-31T08:32:37.330Z,19.10
2019-03-31T08:35:06.215Z,21.68
2019-03-31T08:37:33.145Z,19.37
2019-03-31T08:40:00.816Z,19.62
2019-03-31T08:42:27.737Z,18.02
2019-03-31T08:44:54.579Z,19.75
2019-03-31T08:47:21.563Z,18.17
2019-03-31T08:49:48.387Z,18.15
2019-03-31T08:52:15.280Z,18.70
2019-03-31T08:54:42.408Z,18.15
2019-03-31T08:57:09.217Z,20.08
2019-03-31T08:59:35.804Z,19.80
2019-03-31T09:02:04.921Z,18.70
2019-03-31T09:04:31.873Z,16.37
2019-03-31T09:06:58.630Z,19.87
2019-03-31T09:09:25.349Z,21.25
2019-03-31T09:11:52.405Z,19.52
2019-03-31T09:14:19.130Z,17.00
2019-03-31T09:16:46.259Z,20.02
2019-03-31T09:19:13.143Z,17.77
2019-03-31T09:21:39.895Z,22.22
2019-03-31T09:24:06.556Z,19.57
2019-03-31T09:26:33.136Z,18.27
2019-03-31T09:28:59.789Z,18.50
2019-03-31T09:31:26.372Z,21.68
2019-03-31T09:33:52.829Z,22.75
2019-03-31T09:36:20.393Z,19.23
2019-03-31T09:38:48.572Z,16.15
2019-03-31T09:41:15.407Z,17.37
2019-03-31T09:43:42.072Z,19.23
2019-03-31T09:46:08.574Z,18.15
2019-03-31T09:48:35.263Z,18.90
2019-03-31T09:51:01.940Z,17.80
2019-03-31T09:53:28.559Z,18.35
2019-03-31T09:55:55.087Z,19.15
2019-03-31T09:58:21.772Z,22.22
2019-03-31T10:00:51.103Z,16.77
2019-03-31T10:03:17.792Z,16.35
2019-03-31T10:05:47.605Z,16.97
2019-03-31T10:08:12.607Z,15.85
2019-03-31T10:10:39.333Z,18.80
2019-03-31T10:13:05.958Z,15.93
2019-03-31T10:15:32.519Z,13.05
2019-03-31T10:17:59.203Z,15.30
2019-03-31T10:20:25.751Z,16.97
2019-03-31T10:22:52.325Z,17.40
2019-03-31T10:25:18.905Z,15.80
2019-03-31T10:27:45.500Z,15.70
2019-03-31T10:30:15.893Z,15.88
2019-03-31T10:32:42.751Z,14.95
2019-03-31T10:35:09.333Z,16.55
2019-03-31T10:37:36.070Z,15.65
2019-03-31T10:40:05.247Z,14.80
2019-03-31T10:42:32.205Z,13.88
2019-03-31T10:44:58.800Z,15.25
2019-03-31T10:47:25.468Z,12.73
2019-03-31T10:49:52.053Z,12.20
2019-03-31T10:52:18.689Z,13.50
2019-03-31T10:54:45.292Z,12.28
2019-03-31T10:57:12.846Z,14.80
2019-03-31T10:59:39.596Z,12.98
2019-03-31T11:02:06.198Z,14.13
2019-03-31T11:04:32.865Z,13.15
2019-03-31T11:07:03.378Z,13.48
2019-03-31T11:09:29.738Z,13.30
2019-03-31T11:11:56.272Z,14.83
2019-03-31T11:14:22.929Z,14.38
2019-03-31T11:16:49.570Z,14.98
2019-03-31T11:19:16.180Z,13.72
2019-03-31T11:21:50.906Z,12.43
2019-03-31T11:24:19.262Z,15.78
2019-03-31T11:26:45.721Z,12.00
2019-03-31T11:29:12.498Z,11.22
2019-03-31T11:31:39.182Z,12.95
2019-03-31T11:34:05.735Z,11.35
2019-03-31T11:36:32.516Z,13.50
2019-03-31T11:38:59.170Z,12.70
2019-03-31T11:41:25.731Z,13.72
2019-03-31T11:43:52.855Z,14.85
2019-03-31T11:46:21.442Z,12.53
2019-03-31T11:48:49.432Z,12.63
2019-03-31T11:51:16.012Z,13.10
2019-03-31T11:53:42.772Z,11.95
2019-03-31T11:56:09.325Z,9.93
2019-03-31T11:58:36.107Z,10.25
2019-03-31T12:01:02.789Z,11.12
2019-03-31T12:03:31.092Z,12.78
2019-03-31T12:05:57.805Z,11.70
2019-03-31T12:08:24.488Z,12.00
2019-03-31T12:10:51.068Z,11.85
2019-03-31T12:13:17.624Z,13.20
2019-03-31T12:15:44.188Z,13.78
2019-03-31T12:18:10.861Z,15.83
2019-03-31T12:20:37.591Z,12.18
2019-03-31T12:23:04.330Z,12.63
2019-03-31T12:25:31.176Z,13.83
2019-03-31T12:27:57.851Z,13.00
2019-03-31T12:30:26.315Z,12.82
2019-03-31T12:32:53.020Z,14.63
2019-03-31T12:35:19.773Z,12.05
2019-03-31T12:37:46.524Z,13.60
2019-03-31T12:40:34.640Z,14.10
2019-03-31T12:43:02.382Z,13.22
2019-03-31T12:45:29.080Z,14.05
2019-03-31T12:47:55.603Z,12.43
2019-03-31T12:50:22.161Z,13.88
2019-03-31T12:52:51.136Z,12.93
2019-03-31T12:55:17.129Z,12.40
2019-03-31T12:57:43.904Z,11.93
2019-03-31T13:00:11.281Z,11.80
2019-03-31T13:02:38.059Z,11.45
2019-03-31T13:05:05.515Z,12.70
2019-03-31T13:07:32.265Z,11.38
2019-03-31T13:09:58.926Z,12.88
2019-03-31T13:12:25.593Z,12.45
2019-03-31T13:15:00.968Z,12.43
2019-03-31T13:17:29.315Z,12.30
2019-03-31T13:19:55.999Z,11.57
2019-03-31T13:22:22.569Z,13.72
2019-03-31T13:24:49.465Z,10.10
2019-03-31T13:27:16.032Z,11.60
2019-03-31T13:29:42.818Z,10.32
2019-03-31T13:32:09.384Z,11.80
2019-03-31T13:34:36.032Z,8.63
2019-03-31T13:37:02.615Z,9.28
2019-03-31T13:39:29.283Z,10.50
2019-03-31T13:41:55.756Z,14.20
2019-03-31T13:44:22.334Z,9.95
2019-03-31T13:46:48.916Z,15.30
2019-03-31T13:49:15.474Z,10.93
2019-03-31T13:51:41.980Z,10.40
2019-03-31T13:54:08.536Z,10.88
2019-03-31T13:56:36.460Z,12.80
2019-03-31T13:59:03.712Z,9.43
2019-03-31T14:01:30.363Z,8.90
2019-03-31T14:03:56.840Z,10.28
2019-03-31T14:06:23.357Z,12.80
2019-03-31T14:08:49.816Z,9.55
2019-03-31T14:11:16.393Z,7.65
2019-03-31T14:13:42.939Z,8.78
2019-03-31T14:16:09.531Z,7.10
2019-03-31T14:18:36.203Z,6.95
2019-03-31T14:21:02.738Z,7.78
2019-03-31T14:23:29.235Z,8.50
2019-03-31T14:25:55.704Z,10.00
2019-03-31T14:28:22.283Z,9.85
2019-03-31T14:30:48.819Z,12.75
2019-03-31T14:33:15.387Z,11.10
2019-03-31T14:35:41.951Z,21.82
2019-03-31T14:38:09.719Z,20.27
2019-03-31T14:40:36.423Z,7.75
2019-03-31T14:43:02.985Z,14.55
2019-03-31T14:45:31.236Z,8.70
2019-03-31T14:47:59.317Z,7.90
2019-03-31T14:50:31.743Z,7.80
2019-03-31T14:52:58.185Z,9.00
2019-03-31T14:55:24.754Z,9.18
2019-03-31T14:57:51.444Z,8.08
2019-03-31T15:00:17.991Z,8.55
2019-03-31T15:02:44.588Z,11.50
2019-03-31T15:05:11.177Z,7.85
2019-03-31T15:07:37.799Z,8.70
2019-03-31T15:10:04.713Z,8.88
2019-03-31T15:12:32.357Z,11.57
2019-03-31T15:14:59.036Z,14.53
2019-03-31T15:17:25.663Z,7.95
2019-03-31T15:19:52.393Z,7.05
2019-03-31T15:22:18.832Z,12.53
2019-03-31T15:24:45.647Z,8.73
2019-03-31T15:27:12.269Z,12.58
2019-03-31T15:29:38.795Z,7.17
2019-03-31T15:32:05.367Z,8.75
2019-03-31T15:34:31.916Z,10.30
2019-03-31T15:36:58.362Z,9.20
2019-03-31T15:39:25.046Z,6.78
2019-03-31T15:41:51.724Z,8.90
2019-03-31T15:44:18.394Z,9.20
2019-03-31T15:46:44.982Z,8.25
2019-03-31T15:49:11.622Z,11.30
2019-03-31T15:51:38.179Z,7.22
2019-03-31T15:54:04.773Z,7.87
2019-03-31T15:56:31.323Z,8.15
2019-03-31T15:58:57.911Z,9.03
2019-03-31T16:01:24.606Z,8.05
2019-03-31T16:03:51.153Z,6.95
2019-03-31T16:06:17.750Z,6.12
2019-03-31T16:08:44.486Z,8.48
2019-03-31T16:11:11.027Z,7.90
2019-03-31T16:13:37.712Z,7.40
2019-03-31T16:16:04.303Z,7.12
2019-03-31T16:18:30.862Z,8.05
2019-03-31T16:20:57.441Z,8.25
2019-03-31T16:23:24.168Z,7.08
2019-03-31T16:25:52.718Z,6.60
2019-03-31T16:28:19.317Z,7.80
2019-03-31T16:30:45.982Z,7.03
2019-03-31T16:33:12.404Z,7.28
2019-03-31T16:35:38.971Z,10.48
2019-03-31T16:38:05.637Z,11.30
2019-03-31T16:40:32.190Z,9.58
2019-03-31T16:42:58.736Z,10.15
2019-03-31T16:45:26.124Z,11.55
2019-03-31T16:47:53.060Z,11.20
2019-03-31T16:50:19.764Z,7.12
2019-03-31T16:52:46.360Z,9.45
2019-03-31T16:55:13.071Z,7.10
2019-03-31T16:57:39.966Z,8.23
2019-03-31T17:00:06.644Z,7.83
2019-03-31T17:02:33.899Z,7.03
2019-03-31T17:05:00.456Z,6.42
2019-03-31T17:07:28.237Z,4.72
2019-03-31T17:09:54.803Z,6.42
2019-03-31T17:12:24.466Z,7.42
2019-03-31T17:14:51.104Z,7.75
2019-03-31T17:17:17.998Z,8.63
2019-03-31T17:19:44.681Z,6.37
2019-03-31T17:22:11.213Z,7.25
2019-03-31T17:24:38.798Z,9.00
2019-03-31T17:27:05.719Z,6.40
2019-03-31T17:29:32.530Z,8.95
2019-03-31T17:31:59.179Z,7.33
2019-03-31T17:34:25.808Z,7.53
2019-03-31T17:36:52.485Z,10.10
2019-03-31T17:39:18.948Z,6.78
2019-03-31T17:41:47.229Z,9.70
2019-03-31T17:44:13.793Z,7.97
2019-03-31T17:46:43.358Z,7.35
2019-03-31T17:49:10.035Z,12.58
2019-03-31T17:51:36.597Z,9.35
2019-03-31T17:54:06.085Z,6.03
2019-03-31T17:56:31.718Z,6.95
2019-03-31T17:58:58.339Z,5.92
2019-03-31T18:01:24.975Z,7.40
2019-03-31T18:03:52.198Z,9.10
2019-03-31T18:06:19.460Z,5.85
2019-03-31T18:08:46.211Z,6.58
2019-03-31T18:11:12.949Z,8.58
2019-03-31T18:13:39.919Z,10.15
2019-03-31T18:16:06.750Z,6.72
2019-03-31T18:18:33.444Z,8.18
2019-03-31T18:21:00.136Z,6.60
2019-03-31T18:23:26.870Z,10.38
2019-03-31T18:25:53.521Z,15.60
2019-03-31T18:28:20.332Z,17.35
2019-03-31T18:30:47.223Z,11.20
2019-03-31T18:33:14.120Z,9.18
2019-03-31T18:35:40.898Z,13.35
2019-03-31T18:38:07.618Z,10.78
2019-03-31T18:40:35.912Z,10.28
2019-03-31T18:43:02.616Z,12.37
2019-03-31T18:45:29.296Z,14.98
2019-03-31T18:47:56.180Z,11.80
2019-03-31T18:50:22.828Z,11.35
2019-03-31T18:52:49.511Z,10.65
2019-03-31T18:55:23.897Z,9.83
2019-03-31T18:57:55.374Z,11.73
2019-03-31T19:00:36.230Z,10.15
2019-03-31T19:03:17.906Z,10.25
2019-03-31T19:05:49.349Z,11.63
2019-03-31T19:08:27.048Z,8.58
2019-03-31T19:10:58.399Z,8.73
2019-03-31T19:13:27.191Z,10.53
2019-03-31T19:16:04.607Z,9.28
2019-03-31T19:18:38.832Z,9.68
2019-03-31T19:21:11.234Z,8.55
2019-03-31T19:23:37.919Z,10.00
2019-03-31T19:26:06.657Z,11.18
2019-03-31T19:28:35.382Z,8.35
2019-03-31T19:31:16.959Z,11.05
2019-03-31T19:34:02.234Z,10.15
2019-03-31T19:36:30.687Z,8.10
2019-03-31T19:39:14.293Z,10.90
2019-03-31T19:42:00.639Z,11.90
2019-03-31T19:44:35.222Z,8.45
2019-03-31T19:47:18.852Z,11.97
2019-03-31T19:50:03.061Z,11.10
2019-03-31T19:52:31.682Z,10.18
2019-03-31T19:55:00.395Z,10.53
2019-03-31T19:57:40.960Z,13.45
2019-03-31T20:00:18.252Z,13.58
2019-03-31T20:02:46.925Z,9.70
2019-03-31T20:05:33.667Z,11.12
2019-03-31T20:08:14.419Z,11.35
2019-03-31T20:10:43.026Z,10.43
2019-03-31T20:13:23.614Z,13.05
2019-03-31T20:15:52.255Z,10.32
2019-03-31T20:18:32.828Z,11.53
2019-03-31T20:21:01.344Z,13.68
2019-03-31T20:23:31.087Z,10.98
2019-03-31T20:26:16.384Z,10.00
2019-03-31T20:28:48.029Z,11.75
2019-03-31T20:31:19.270Z,9.85
2019-03-31T20:33:48.846Z,11.10
2019-03-31T20:36:20.335Z,12.18
2019-03-31T20:39:01.002Z,12.10
2019-03-31T20:41:29.573Z,12.20
2019-03-31T20:43:56.753Z,12.98
2019-03-31T20:46:23.675Z,16.40
2019-03-31T20:48:50.944Z,11.03
2019-03-31T20:51:17.521Z,13.13
2019-03-31T20:53:44.075Z,13.03
2019-03-31T20:56:11.775Z,11.03
2019-03-31T20:58:38.451Z,10.25
2019-03-31T21:01:05.150Z,11.18
2019-03-31T21:03:32.180Z,10.68
2019-03-31T21:05:58.837Z,14.73
2019-03-31T21:08:25.674Z,9.18
2019-03-31T21:10:52.369Z,10.08
2019-03-31T21:13:19.022Z,13.50
2019-03-31T21:15:45.792Z,12.53
2019-03-31T21:18:12.426Z,12.93
2019-03-31T21:20:40.253Z,9.73
2019-03-31T21:23:06.936Z,10.90
2019-03-31T21:25:33.937Z,11.63
2019-03-31T21:28:00.816Z,13.43
2019-03-31T21:30:27.368Z,8.05
2019-03-31T21:32:54.046Z,8.98
2019-03-31T21:35:20.610Z,10.95
2019-03-31T21:37:47.272Z,11.73
2019-03-31T21:40:14.028Z,11.08
2019-03-31T21:42:40.734Z,14.25
2019-03-31T21:45:07.312Z,8.43
2019-03-31T21:47:34.215Z,9.85
2019-03-31T21:50:00.798Z,10.30
2019-03-31T21:52:27.471Z,9.05
2019-03-31T21:54:54.248Z,11.10
2019-03-31T21:57:20.813Z,11.48
2019-03-31T21:59:47.633Z,11.05
2019-03-31T22:02:14.492Z,9.38
2019-03-31T22:04:41.276Z,8.90
2019-03-31T22:07:07.927Z,15.60
2019-03-31T22:09:34.502Z,11.05
2019-03-31T22:12:01.575Z,9.23
2019-03-31T22:14:28.184Z,19.17
2019-03-31T22:16:54.841Z,10.93
2019-03-31T22:19:21.703Z,9.93
2019-03-31T22:21:48.750Z,11.53
2019-03-31T22:24:15.295Z,10.10
2019-03-31T22:26:41.896Z,8.65
2019-03-31T22:29:08.700Z,9.78
2019-03-31T22:31:35.259Z,9.20
2019-03-31T22:34:02.242Z,10.13
2019-03-31T22:36:28.933Z,11.30
2019-03-31T22:38:55.749Z,11.10
2019-03-31T22:41:22.517Z,11.35
2019-03-31T22:43:49.448Z,10.65
2019-03-31T22:46:16.706Z,12.53
2019-03-31T22:48:43.402Z,8.58
2019-03-31T22:51:10.101Z,10.58
2019-03-31T22:53:37.484Z,7.87
2019-03-31T22:56:04.130Z,9.88
2019-03-31T22:58:31.064Z,10.72
2019-03-31T23:00:57.882Z,10.23
2019-03-31T23:03:24.543Z,11.38
2019-03-31T23:05:51.251Z,11.28
2019-03-31T23:08:18.362Z,10.85
2019-03-31T23:10:45.191Z,10.95
2019-03-31T23:13:11.957Z,11.90
2019-03-31T23:15:38.677Z,10.80
2019-03-31T23:18:05.249Z,10.03
2019-03-31T23:20:32.345Z,11.48
2019-03-31T23:22:58.909Z,9.85
2019-03-31T23:25:25.749Z,10.68
2019-03-31T23:27:52.530Z,10.45
2019-03-31T23:30:19.225Z,11.90
2019-03-31T23:32:46.250Z,13.22
2019-03-31T23:35:13.990Z,8.78
2019-03-31T23:37:40.633Z,9.53
2019-03-31T23:40:07.218Z,8.83
2019-03-31T23:42:35.155Z,8.23
2019-03-31T23:45:01.735Z,10.53
2019-03-31T23:47:28.636Z,10.10
2019-03-31T23:49:55.209Z,9.03
2019-03-31T23:52:22.029Z,9.13
2019-03-31T23:54:48.605Z,11.22
2019-03-31T23:57:15.386Z,11.83
2019-03-31T23:59:42.010Z,12.23
